createdAt,value
2019-03-28T00:00:43.174Z,0.00
2019-03-28T00:01:43.162Z,0.00
2019-03-28T00:02:43.170Z,0.00
2019-03-28T00:03:43.165Z,0.00
2019-03-28T00:04:43.176Z,0.00
2019-03-28T00:05:43.178Z,0.00
2019-03-28T00:06:43.178Z,0.00
2019-03-28T00:07:43.184Z,0.00
2019-03-28T00:08:43.189Z,0.00
2019-03-28T00:09:43.203Z,0.00
2019-03-28T00:10:43.192Z,0.00
2019-03-28T00:11:43.196Z,0.00
2019-03-28T00:12:43.207Z,0.00
2019-03-28T00:13:43.208Z,0.00
2019-03-28T00:14:43.348Z,0.00
2019-03-28T00:15:43.218Z,0.00
2019-03-28T00:16:43.216Z,0.00
2019-03-28T00:17:43.218Z,0.00
2019-03-28T00:18:43.216Z,0.00
2019-03-28T00:19:43.230Z,0.00
2019-03-28T00:20:43.231Z,0.00
2019-03-28T00:21:43.238Z,0.00
2019-03-28T00:22:43.244Z,0.00
2019-03-28T00:23:43.243Z,0.00
2019-03-28T00:24:43.243Z,0.00
2019-03-28T00:25:43.254Z,0.00
2019-03-28T00:26:43.244Z,0.00
2019-03-28T00:27:43.256Z,0.00
2019-03-28T00:28:43.256Z,0.00
2019-03-28T00:29:43.264Z,0.00
2019-03-28T00:30:43.266Z,0.00
2019-03-28T00:31:43.269Z,0.00
2019-03-28T00:32:43.263Z,0.00
2019-03-28T00:33:43.293Z,0.00
2019-03-28T00:34:43.277Z,0.00
2019-03-28T00:35:43.282Z,0.00
2019-03-28T00:36:43.334Z,0.00
2019-03-28T00:37:43.294Z,0.00
2019-03-28T00:38:43.321Z,0.00
2019-03-28T00:39:43.288Z,0.00
2019-03-28T00:40:43.350Z,0.00
2019-03-28T00:41:43.306Z,0.00
2019-03-28T00:42:43.316Z,0.00
2019-03-28T00:43:43.310Z,0.00
2019-03-28T00:44:43.508Z,0.00
2019-03-28T00:45:44.625Z,0.00
2019-03-28T00:46:43.334Z,0.00
2019-03-28T00:47:43.328Z,0.00
2019-03-28T00:48:43.354Z,0.00
2019-03-28T00:49:43.388Z,0.00
2019-03-28T00:50:43.476Z,0.00
2019-03-28T00:51:43.493Z,0.00
2019-03-28T00:52:43.364Z,0.00
2019-03-28T00:53:43.362Z,0.00
2019-03-28T00:54:43.354Z,0.00
2019-03-28T00:55:43.360Z,0.00
2019-03-28T00:56:47.135Z,0.00
2019-03-28T00:57:44.093Z,0.00
2019-03-28T00:58:43.381Z,0.00
2019-03-28T00:59:43.372Z,0.00
2019-03-28T01:00:43.394Z,0.00
2019-03-28T01:01:43.376Z,0.00
2019-03-28T01:02:43.394Z,0.00
2019-03-28T01:03:43.384Z,0.00
2019-03-28T01:04:43.412Z,0.00
2019-03-28T01:05:43.390Z,0.00
2019-03-28T01:06:43.388Z,0.00
2019-03-28T01:07:43.413Z,0.00
2019-03-28T01:08:43.404Z,0.00
2019-03-28T01:09:43.406Z,0.00
2019-03-28T01:10:43.478Z,0.00
2019-03-28T01:11:43.412Z,0.00
2019-03-28T01:12:43.431Z,0.00
2019-03-28T01:13:43.456Z,0.00
2019-03-28T01:14:43.424Z,0.00
2019-03-28T01:15:43.434Z,0.00
2019-03-28T01:16:43.468Z,0.00
2019-03-28T01:17:43.436Z,0.00
2019-03-28T01:18:43.446Z,0.00
2019-03-28T01:19:43.447Z,0.00
2019-03-28T01:20:43.476Z,0.00
2019-03-28T01:21:43.456Z,0.00
2019-03-28T01:22:43.464Z,0.00
2019-03-28T01:23:43.454Z,0.00
2019-03-28T01:24:43.500Z,0.00
2019-03-28T01:25:43.466Z,0.00
2019-03-28T01:26:56.241Z,0.00
2019-03-28T01:27:43.472Z,0.00
2019-03-28T01:28:43.488Z,0.00
2019-03-28T01:29:43.479Z,0.00
2019-03-28T01:30:43.488Z,0.00
2019-03-28T01:31:43.486Z,0.00
2019-03-28T01:32:43.488Z,0.00
2019-03-28T01:33:43.496Z,0.00
2019-03-28T01:34:43.500Z,0.00
2019-03-28T01:35:43.502Z,0.00
2019-03-28T01:36:43.502Z,0.00
2019-03-28T01:37:43.510Z,0.00
2019-03-28T01:38:44.041Z,0.00
2019-03-28T01:39:43.534Z,0.00
2019-03-28T01:40:43.513Z,0.00
2019-03-28T01:41:43.522Z,0.00
2019-03-28T01:42:43.529Z,0.00
2019-03-28T01:43:43.538Z,0.00
2019-03-28T01:44:43.532Z,0.00
2019-03-28T01:45:43.540Z,0.00
2019-03-28T01:46:43.555Z,0.00
2019-03-28T01:47:43.544Z,0.00
2019-03-28T01:48:43.552Z,0.00
2019-03-28T01:49:43.552Z,0.00
2019-03-28T01:50:43.564Z,0.00
2019-03-28T01:51:43.555Z,0.00
2019-03-28T01:52:43.568Z,0.00
2019-03-28T01:53:43.565Z,0.00
2019-03-28T01:54:43.590Z,0.00
2019-03-28T01:55:43.568Z,0.00
2019-03-28T01:56:43.576Z,0.00
2019-03-28T01:57:43.578Z,0.00
2019-03-28T01:58:43.584Z,0.00
2019-03-28T01:59:43.590Z,0.00
2019-03-28T02:00:43.588Z,0.00
2019-03-28T02:01:43.594Z,0.00
2019-03-28T02:02:43.593Z,0.00
2019-03-28T02:03:43.601Z,0.00
2019-03-28T02:04:43.601Z,0.00
2019-03-28T02:05:43.605Z,0.00
2019-03-28T02:06:43.615Z,0.00
2019-03-28T02:07:43.620Z,0.00
2019-03-28T02:08:43.625Z,0.00
2019-03-28T02:09:43.621Z,0.00
2019-03-28T02:10:43.627Z,0.00
2019-03-28T02:11:43.636Z,0.00
2019-03-28T02:12:43.631Z,0.00
2019-03-28T02:13:43.639Z,0.00
2019-03-28T02:14:43.633Z,0.00
2019-03-28T02:15:43.642Z,0.00
2019-03-28T02:16:43.647Z,0.00
2019-03-28T02:17:43.651Z,0.00
2019-03-28T02:18:43.649Z,0.00
2019-03-28T02:19:43.655Z,0.00
2019-03-28T02:20:43.659Z,0.00
2019-03-28T02:21:43.667Z,0.00
2019-03-28T02:22:43.665Z,0.00
2019-03-28T02:23:43.674Z,0.00
2019-03-28T02:24:43.671Z,0.00
2019-03-28T02:25:43.686Z,0.00
2019-03-28T02:26:43.680Z,0.00
2019-03-28T02:27:43.687Z,0.00
2019-03-28T02:28:43.685Z,0.00
2019-03-28T02:29:43.692Z,0.00
2019-03-28T02:30:43.698Z,0.00
2019-03-28T02:31:43.699Z,0.00
2019-03-28T02:32:43.691Z,0.00
2019-03-28T02:33:43.711Z,0.00
2019-03-28T02:34:43.708Z,0.00
2019-03-28T02:35:43.716Z,0.00
2019-03-28T02:36:43.718Z,0.00
2019-03-28T02:37:43.716Z,0.00
2019-03-28T02:38:43.723Z,0.00
2019-03-28T02:39:43.726Z,0.00
2019-03-28T02:40:43.727Z,0.00
2019-03-28T02:41:43.738Z,0.00
2019-03-28T02:42:43.739Z,0.00
2019-03-28T02:43:43.739Z,0.00
2019-03-28T02:44:43.742Z,0.00
2019-03-28T02:45:43.750Z,0.00
2019-03-28T02:46:43.761Z,0.00
2019-03-28T02:47:43.757Z,0.00
2019-03-28T02:48:43.755Z,0.00
2019-03-28T02:49:43.760Z,0.00
2019-03-28T02:50:43.765Z,0.00
2019-03-28T02:51:43.766Z,0.00
2019-03-28T02:52:43.777Z,0.00
2019-03-28T02:53:43.775Z,0.00
2019-03-28T02:54:43.783Z,0.00
2019-03-28T02:55:43.780Z,0.00
2019-03-28T02:56:43.783Z,0.00
2019-03-28T02:57:44.103Z,0.00
2019-03-28T02:58:43.806Z,0.00
2019-03-28T02:59:43.801Z,0.00
2019-03-28T03:00:43.798Z,0.00
2019-03-28T03:01:43.808Z,0.00
2019-03-28T03:02:43.811Z,0.00
2019-03-28T03:03:43.807Z,0.00
2019-03-28T03:04:43.816Z,0.00
2019-03-28T03:05:43.819Z,0.00
2019-03-28T03:06:43.817Z,0.00
2019-03-28T03:07:43.818Z,0.00
2019-03-28T03:08:43.827Z,0.00
2019-03-28T03:09:43.833Z,0.00
2019-03-28T03:10:44.188Z,0.00
2019-03-28T03:11:43.835Z,0.00
2019-03-28T03:12:43.838Z,0.00
2019-03-28T03:13:43.841Z,0.00
2019-03-28T03:14:43.851Z,0.00
2019-03-28T03:15:43.858Z,0.00
2019-03-28T03:16:43.851Z,0.00
2019-03-28T03:17:43.864Z,0.00
2019-03-28T03:18:43.862Z,0.00
2019-03-28T03:19:43.863Z,0.00
2019-03-28T03:20:43.934Z,0.00
2019-03-28T03:21:43.866Z,0.00
2019-03-28T03:22:43.875Z,0.00
2019-03-28T03:23:43.869Z,0.00
2019-03-28T03:24:43.879Z,0.00
2019-03-28T03:25:43.886Z,0.00
2019-03-28T03:26:43.887Z,0.00
2019-03-28T03:27:56.773Z,0.00
2019-03-28T03:28:43.901Z,0.00
2019-03-28T03:29:43.891Z,0.00
2019-03-28T03:30:43.901Z,0.00
2019-03-28T03:31:43.901Z,0.00
2019-03-28T03:32:43.903Z,0.00
2019-03-28T03:33:43.954Z,0.00
2019-03-28T03:34:43.921Z,0.00
2019-03-28T03:35:43.918Z,0.00
2019-03-28T03:36:43.939Z,0.00
2019-03-28T03:37:43.948Z,0.00
2019-03-28T03:38:43.930Z,0.00
2019-03-28T03:39:43.959Z,0.00
2019-03-28T03:40:43.942Z,0.00
2019-03-28T03:41:44.832Z,0.00
2019-03-28T03:42:43.944Z,0.00
2019-03-28T03:43:43.956Z,0.00
2019-03-28T03:44:43.943Z,0.00
2019-03-28T03:45:43.952Z,0.00
2019-03-28T03:46:43.957Z,0.00
2019-03-28T03:47:43.980Z,0.00
2019-03-28T03:48:43.975Z,0.00
2019-03-28T03:49:43.982Z,0.00
2019-03-28T03:50:43.971Z,0.00
2019-03-28T03:51:46.528Z,0.00
2019-03-28T03:52:43.986Z,0.00
2019-03-28T03:53:44.085Z,0.00
2019-03-28T03:54:43.986Z,0.00
2019-03-28T03:55:44.103Z,0.00
2019-03-28T03:56:43.995Z,0.00
2019-03-28T03:57:44.005Z,0.00
2019-03-28T03:58:44.003Z,0.00
2019-03-28T03:59:44.004Z,0.00
2019-03-28T04:00:44.049Z,0.00
2019-03-28T04:01:44.587Z,0.00
2019-03-28T04:02:44.014Z,0.00
2019-03-28T04:03:44.025Z,0.00
2019-03-28T04:04:44.020Z,0.00
2019-03-28T04:05:44.097Z,0.00
2019-03-28T04:06:44.027Z,0.00
2019-03-28T04:07:44.045Z,0.00
2019-03-28T04:08:44.042Z,0.00
2019-03-28T04:09:44.083Z,0.00
2019-03-28T04:10:44.041Z,0.00
2019-03-28T04:11:44.054Z,0.00
2019-03-28T04:12:44.055Z,0.00
2019-03-28T04:13:44.060Z,0.00
2019-03-28T04:14:44.058Z,0.00
2019-03-28T04:15:44.066Z,0.00
2019-03-28T04:16:44.061Z,0.00
2019-03-28T04:17:44.069Z,0.00
2019-03-28T04:18:44.087Z,0.00
2019-03-28T04:19:44.084Z,0.00
2019-03-28T04:20:44.073Z,0.00
2019-03-28T04:21:44.085Z,0.00
2019-03-28T04:22:44.088Z,0.00
2019-03-28T04:23:44.089Z,0.00
2019-03-28T04:24:44.095Z,0.00
2019-03-28T04:25:44.091Z,0.00
2019-03-28T04:26:44.101Z,0.00
2019-03-28T04:27:44.110Z,0.00
2019-03-28T04:28:44.101Z,0.00
2019-03-28T04:29:44.107Z,0.00
2019-03-28T04:30:44.127Z,0.00
2019-03-28T04:31:44.112Z,0.00
2019-03-28T04:32:44.111Z,0.00
2019-03-28T04:33:44.129Z,0.00
2019-03-28T04:34:44.125Z,0.00
2019-03-28T04:35:44.135Z,0.00
2019-03-28T04:36:44.142Z,0.00
2019-03-28T04:37:44.134Z,0.00
2019-03-28T04:38:44.138Z,0.00
2019-03-28T04:39:44.142Z,0.00
2019-03-28T04:40:44.144Z,0.00
2019-03-28T04:41:44.151Z,0.00
2019-03-28T04:42:45.753Z,0.00
2019-03-28T04:43:44.156Z,0.00
2019-03-28T04:44:44.162Z,0.00
2019-03-28T04:45:44.162Z,0.00
2019-03-28T04:46:44.155Z,0.00
2019-03-28T04:47:44.164Z,0.00
2019-03-28T04:48:44.176Z,0.00
2019-03-28T04:49:44.359Z,0.00
2019-03-28T04:50:44.175Z,0.00
2019-03-28T04:51:44.180Z,0.00
2019-03-28T04:52:44.187Z,0.00
2019-03-28T04:53:44.204Z,0.00
2019-03-28T04:54:44.191Z,0.00
2019-03-28T04:55:44.192Z,0.00
2019-03-28T04:56:44.194Z,0.00
2019-03-28T04:57:44.205Z,0.00
2019-03-28T04:58:45.073Z,0.00
2019-03-28T04:59:44.202Z,0.00
2019-03-28T05:00:44.224Z,0.00
2019-03-28T05:01:44.214Z,0.00
2019-03-28T05:02:46.051Z,0.00
2019-03-28T05:03:44.225Z,0.00
2019-03-28T05:04:44.225Z,0.00
2019-03-28T05:05:44.230Z,0.00
2019-03-28T05:06:44.238Z,0.00
2019-03-28T05:07:44.244Z,0.00
2019-03-28T05:08:44.242Z,0.00
2019-03-28T05:09:44.238Z,0.00
2019-03-28T05:10:44.248Z,0.00
2019-03-28T05:11:44.247Z,0.00
2019-03-28T05:12:44.256Z,0.00
2019-03-28T05:13:44.254Z,0.00
2019-03-28T05:14:44.259Z,0.00
2019-03-28T05:15:44.261Z,0.00
2019-03-28T05:16:44.274Z,0.00
2019-03-28T05:17:44.270Z,0.00
2019-03-28T05:18:44.279Z,0.00
2019-03-28T05:19:44.282Z,0.00
2019-03-28T05:20:44.280Z,0.00
2019-03-28T05:21:44.284Z,0.00
2019-03-28T05:22:44.286Z,0.00
2019-03-28T05:23:44.290Z,0.00
2019-03-28T05:24:44.296Z,0.00
2019-03-28T05:25:44.304Z,0.00
2019-03-28T05:26:44.309Z,0.00
2019-03-28T05:27:44.304Z,0.00
2019-03-28T05:28:56.605Z,0.00
2019-03-28T05:29:44.310Z,0.00
2019-03-28T05:30:44.318Z,0.00
2019-03-28T05:31:44.314Z,0.00
2019-03-28T05:32:44.324Z,0.00
2019-03-28T05:33:44.332Z,4.00
2019-03-28T05:34:44.326Z,4.00
2019-03-28T05:35:44.334Z,4.00
2019-03-28T05:36:44.427Z,4.00
2019-03-28T05:37:44.340Z,4.00
2019-03-28T05:38:44.344Z,4.00
2019-03-28T05:39:44.338Z,4.00
2019-03-28T05:40:44.354Z,4.00
2019-03-28T05:41:44.354Z,4.00
2019-03-28T05:42:44.354Z,4.00
2019-03-28T05:43:45.574Z,4.00
2019-03-28T05:44:44.376Z,4.00
2019-03-28T05:45:47.452Z,4.00
2019-03-28T05:46:44.372Z,4.00
2019-03-28T05:47:44.370Z,4.00
2019-03-28T05:48:44.372Z,4.00
2019-03-28T05:49:44.381Z,4.00
2019-03-28T05:50:44.382Z,4.00
2019-03-28T05:51:44.396Z,4.00
2019-03-28T05:52:44.396Z,4.00
2019-03-28T05:53:44.415Z,4.00
2019-03-28T05:54:44.415Z,4.00
2019-03-28T05:55:44.402Z,4.00
2019-03-28T05:56:44.405Z,4.00
2019-03-28T05:57:44.408Z,4.00
2019-03-28T05:58:44.413Z,8.00
2019-03-28T05:59:45.327Z,8.00
2019-03-28T06:00:44.427Z,8.00
2019-03-28T06:01:44.426Z,8.00
2019-03-28T06:02:44.426Z,4.00
2019-03-28T06:03:44.426Z,4.00
2019-03-28T06:04:44.430Z,8.00
2019-03-28T06:05:44.440Z,8.00
2019-03-28T06:06:44.513Z,8.00
2019-03-28T06:07:44.442Z,8.00
2019-03-28T06:08:44.454Z,12.00
2019-03-28T06:09:44.603Z,8.00
2019-03-28T06:10:44.459Z,8.00
2019-03-28T06:11:44.456Z,12.00
2019-03-28T06:12:44.459Z,12.00
2019-03-28T06:13:44.469Z,12.00
2019-03-28T06:14:44.467Z,12.00
2019-03-28T06:15:44.469Z,12.00
2019-03-28T06:16:44.475Z,16.00
2019-03-28T06:17:44.480Z,12.00
2019-03-28T06:18:44.513Z,12.00
2019-03-28T06:19:44.485Z,16.00
2019-03-28T06:20:44.488Z,16.00
2019-03-28T06:21:44.493Z,16.00
2019-03-28T06:22:44.497Z,16.00
2019-03-28T06:23:44.490Z,16.00
2019-03-28T06:24:44.502Z,16.00
2019-03-28T06:25:44.517Z,20.00
2019-03-28T06:26:44.508Z,16.00
2019-03-28T06:27:44.515Z,20.00
2019-03-28T06:28:44.520Z,20.00
2019-03-28T06:29:44.522Z,20.00
2019-03-28T06:30:44.631Z,20.00
2019-03-28T06:31:54.656Z,24.00
2019-03-28T06:32:44.527Z,24.00
2019-03-28T06:33:44.529Z,24.00
2019-03-28T06:34:44.538Z,24.00
2019-03-28T06:35:44.540Z,24.00
2019-03-28T06:36:44.540Z,24.00
2019-03-28T06:37:44.550Z,24.00
2019-03-28T06:38:44.557Z,24.00
2019-03-28T06:39:44.549Z,24.00
2019-03-28T06:40:44.560Z,24.00
2019-03-28T06:41:44.563Z,20.00
2019-03-28T06:42:44.569Z,20.00
2019-03-28T06:43:44.569Z,20.00
2019-03-28T06:44:44.572Z,24.00
2019-03-28T06:45:44.584Z,20.00
2019-03-28T06:46:44.582Z,20.00
2019-03-28T06:47:44.585Z,20.00
2019-03-28T06:48:44.596Z,20.00
2019-03-28T06:49:44.588Z,20.00
2019-03-28T06:50:44.594Z,20.00
2019-03-28T06:51:44.594Z,24.00
2019-03-28T06:52:44.603Z,24.00
2019-03-28T06:53:44.600Z,24.00
2019-03-28T06:54:44.604Z,28.00
2019-03-28T06:55:44.606Z,28.00
2019-03-28T06:56:44.616Z,28.00
2019-03-28T06:57:44.616Z,24.00
2019-03-28T06:58:44.624Z,24.00
2019-03-28T06:59:44.626Z,24.00
2019-03-28T07:00:44.632Z,24.00
2019-03-28T07:01:44.635Z,24.00
2019-03-28T07:02:44.632Z,24.00
2019-03-28T07:03:47.252Z,24.00
2019-03-28T07:04:44.642Z,24.00
2019-03-28T07:05:44.641Z,28.00
2019-03-28T07:06:44.647Z,24.00
2019-03-28T07:07:44.660Z,28.00
2019-03-28T07:08:45.188Z,32.00
2019-03-28T07:09:44.670Z,28.00
2019-03-28T07:10:44.663Z,32.00
2019-03-28T07:11:44.666Z,28.00
2019-03-28T07:12:44.669Z,32.00
2019-03-28T07:13:44.680Z,32.00
2019-03-28T07:14:44.677Z,32.00
2019-03-28T07:15:44.687Z,36.00
2019-03-28T07:16:44.678Z,36.00
2019-03-28T07:17:44.706Z,36.00
2019-03-28T07:18:44.688Z,40.00
2019-03-28T07:19:44.709Z,40.00
2019-03-28T07:20:44.702Z,44.00
2019-03-28T07:21:44.703Z,44.00
2019-03-28T07:22:46.032Z,44.00
2019-03-28T07:23:44.705Z,48.00
2019-03-28T07:24:44.707Z,48.00
2019-03-28T07:25:44.715Z,52.00
2019-03-28T07:26:44.721Z,56.00
2019-03-28T07:27:44.723Z,56.00
2019-03-28T07:28:44.723Z,60.00
2019-03-28T07:29:50.877Z,64.00
2019-03-28T07:30:45.374Z,68.00
2019-03-28T07:31:44.740Z,68.00
2019-03-28T07:32:44.750Z,72.00
2019-03-28T07:33:44.746Z,76.00
2019-03-28T07:34:44.749Z,80.00
2019-03-28T07:35:44.755Z,80.00
2019-03-28T07:36:44.751Z,80.00
2019-03-28T07:37:44.764Z,84.00
2019-03-28T07:38:44.761Z,80.00
2019-03-28T07:39:44.761Z,84.00
2019-03-28T07:40:44.767Z,80.00
2019-03-28T07:41:44.785Z,84.00
2019-03-28T07:42:44.790Z,84.00
2019-03-28T07:43:44.773Z,88.00
2019-03-28T07:44:44.783Z,88.00
2019-03-28T07:45:44.791Z,92.00
2019-03-28T07:46:47.468Z,96.00
2019-03-28T07:47:44.794Z,100.00
2019-03-28T07:48:44.793Z,100.00
2019-03-28T07:49:45.486Z,100.00
2019-03-28T07:50:44.801Z,100.00
2019-03-28T07:51:44.802Z,100.00
2019-03-28T07:52:44.809Z,100.00
2019-03-28T07:53:44.818Z,96.00
2019-03-28T07:54:44.813Z,100.00
2019-03-28T07:55:44.817Z,100.00
2019-03-28T07:56:44.831Z,104.00
2019-03-28T07:57:44.831Z,104.00
2019-03-28T07:58:44.831Z,104.00
2019-03-28T07:59:44.829Z,108.00
2019-03-28T08:00:44.855Z,104.00
2019-03-28T08:01:44.839Z,104.00
2019-03-28T08:02:44.845Z,108.00
2019-03-28T08:03:44.852Z,108.00
2019-03-28T08:04:44.849Z,108.00
2019-03-28T08:05:44.871Z,108.00
2019-03-28T08:06:49.955Z,108.00
2019-03-28T08:07:45.842Z,108.00
2019-03-28T08:08:44.865Z,112.00
2019-03-28T08:09:44.872Z,108.00
2019-03-28T08:10:44.869Z,112.00
2019-03-28T08:11:47.973Z,112.00
2019-03-28T08:12:44.885Z,116.00
2019-03-28T08:13:44.882Z,116.00
2019-03-28T08:14:44.883Z,116.00
2019-03-28T08:15:44.881Z,120.00
2019-03-28T08:16:44.897Z,120.00
2019-03-28T08:17:44.897Z,124.00
2019-03-28T08:18:45.460Z,128.00
2019-03-28T08:19:44.903Z,128.00
2019-03-28T08:20:44.902Z,136.00
2019-03-28T08:21:44.911Z,132.00
2019-03-28T08:22:44.915Z,132.00
2019-03-28T08:23:44.917Z,132.00
2019-03-28T08:24:44.922Z,132.00
2019-03-28T08:25:44.947Z,132.00
2019-03-28T08:26:44.936Z,136.00
2019-03-28T08:27:45.033Z,136.00
2019-03-28T08:28:44.939Z,136.00
2019-03-28T08:29:44.945Z,140.00
2019-03-28T08:30:45.494Z,140.00
2019-03-28T08:31:44.942Z,144.00
2019-03-28T08:32:44.960Z,140.00
2019-03-28T08:33:44.953Z,140.00
2019-03-28T08:34:44.984Z,140.00
2019-03-28T08:35:44.961Z,144.00
2019-03-28T08:36:44.961Z,148.00
2019-03-28T08:37:44.967Z,148.00
2019-03-28T08:38:44.974Z,152.00
2019-03-28T08:39:44.975Z,152.00
2019-03-28T08:40:45.168Z,152.00
2019-03-28T08:41:48.421Z,156.00
2019-03-28T08:42:45.009Z,156.00
2019-03-28T08:43:44.987Z,152.00
2019-03-28T08:44:44.996Z,148.00
2019-03-28T08:45:45.021Z,144.00
2019-03-28T08:46:44.999Z,140.00
2019-03-28T08:47:44.999Z,132.00
2019-03-28T08:48:45.073Z,128.00
2019-03-28T08:49:45.006Z,120.00
2019-03-28T08:50:45.013Z,124.00
2019-03-28T08:51:45.017Z,124.00
2019-03-28T08:52:45.033Z,128.00
2019-03-28T08:53:45.023Z,128.00
2019-03-28T08:54:45.025Z,132.00
2019-03-28T08:55:45.033Z,132.00
2019-03-28T08:56:45.033Z,140.00
2019-03-28T08:57:45.037Z,140.00
2019-03-28T08:58:45.043Z,144.00
2019-03-28T08:59:45.056Z,144.00
2019-03-28T09:00:52.477Z,152.00
2019-03-28T09:01:45.051Z,156.00
2019-03-28T09:02:45.053Z,160.00
2019-03-28T09:03:45.059Z,164.00
2019-03-28T09:04:45.082Z,160.00
2019-03-28T09:05:45.065Z,164.00
2019-03-28T09:06:45.072Z,160.00
2019-03-28T09:07:45.079Z,156.00
2019-03-28T09:08:45.079Z,156.00
2019-03-28T09:09:45.083Z,152.00
2019-03-28T09:10:45.083Z,156.00
2019-03-28T09:11:45.082Z,160.00
2019-03-28T09:12:45.094Z,156.00
2019-03-28T09:13:45.097Z,160.00
2019-03-28T09:14:45.132Z,160.00
2019-03-28T09:15:45.099Z,156.00
2019-03-28T09:16:45.104Z,156.00
2019-03-28T09:17:45.107Z,156.00
2019-03-28T09:18:45.109Z,152.00
2019-03-28T09:19:45.109Z,152.00
2019-03-28T09:20:45.119Z,152.00
2019-03-28T09:21:45.123Z,152.00
2019-03-28T09:22:45.248Z,148.00
2019-03-28T09:23:45.341Z,148.00
2019-03-28T09:24:45.152Z,144.00
2019-03-28T09:25:45.172Z,144.00
2019-03-28T09:26:45.138Z,144.00
2019-03-28T09:27:45.241Z,140.00
2019-03-28T09:28:45.160Z,144.00
2019-03-28T09:29:45.155Z,144.00
2019-03-28T09:30:49.702Z,144.00
2019-03-28T09:31:45.158Z,140.00
2019-03-28T09:32:45.163Z,140.00
2019-03-28T09:33:45.160Z,140.00
2019-03-28T09:34:45.177Z,140.00
2019-03-28T09:35:45.226Z,140.00
2019-03-28T09:36:45.204Z,144.00
2019-03-28T09:37:45.183Z,144.00
2019-03-28T09:38:45.196Z,144.00
2019-03-28T09:39:45.208Z,140.00
2019-03-28T09:40:45.206Z,144.00
2019-03-28T09:41:45.196Z,144.00
2019-03-28T09:42:45.250Z,144.00
2019-03-28T09:43:55.124Z,144.00
2019-03-28T09:44:45.207Z,144.00
2019-03-28T09:45:45.205Z,144.00
2019-03-28T09:46:45.205Z,144.00
2019-03-28T09:47:45.218Z,144.00
2019-03-28T09:48:45.218Z,144.00
2019-03-28T09:49:45.225Z,144.00
2019-03-28T09:50:45.223Z,144.00
2019-03-28T09:51:45.229Z,148.00
2019-03-28T09:52:45.232Z,152.00
2019-03-28T09:53:45.232Z,156.00
2019-03-28T09:54:45.240Z,160.00
2019-03-28T09:55:45.247Z,164.00
2019-03-28T09:56:45.243Z,168.00
2019-03-28T09:57:45.252Z,172.00
2019-03-28T09:58:45.253Z,172.00
2019-03-28T09:59:45.260Z,172.00
2019-03-28T10:00:45.282Z,172.00
2019-03-28T10:01:45.267Z,172.00
2019-03-28T10:02:45.270Z,176.00
2019-03-28T10:03:45.272Z,176.00
2019-03-28T10:04:45.273Z,180.00
2019-03-28T10:05:45.280Z,180.00
2019-03-28T10:06:45.281Z,184.00
2019-03-28T10:07:45.307Z,184.00
2019-03-28T10:08:45.290Z,180.00
2019-03-28T10:09:45.642Z,180.00
2019-03-28T10:10:48.529Z,180.00
2019-03-28T10:11:45.299Z,176.00
2019-03-28T10:12:45.306Z,176.00
2019-03-28T10:13:45.307Z,180.00
2019-03-28T10:14:45.311Z,184.00
2019-03-28T10:15:45.315Z,180.00
2019-03-28T10:16:45.321Z,188.00
2019-03-28T10:17:45.324Z,188.00
2019-03-28T10:18:45.430Z,188.00
2019-03-28T10:19:45.853Z,192.00
2019-03-28T10:20:45.333Z,192.00
2019-03-28T10:21:45.332Z,196.00
2019-03-28T10:22:45.342Z,200.00
2019-03-28T10:23:45.341Z,208.00
2019-03-28T10:24:45.351Z,216.00
2019-03-28T10:25:45.355Z,224.00
2019-03-28T10:26:45.363Z,232.00
2019-03-28T10:27:45.352Z,240.00
2019-03-28T10:28:45.360Z,248.00
2019-03-28T10:29:45.361Z,260.00
2019-03-28T10:30:45.364Z,268.00
2019-03-28T10:31:45.370Z,280.00
2019-03-28T10:32:45.370Z,296.00
2019-03-28T10:33:45.382Z,308.00
2019-03-28T10:34:45.383Z,320.00
2019-03-28T10:35:45.386Z,332.00
2019-03-28T10:36:45.390Z,336.00
2019-03-28T10:37:45.395Z,336.00
2019-03-28T10:38:45.404Z,332.00
2019-03-28T10:39:45.388Z,332.00
2019-03-28T10:40:45.414Z,336.00
2019-03-28T10:41:45.405Z,340.00
2019-03-28T10:42:45.412Z,344.00
2019-03-28T10:43:45.413Z,352.00
2019-03-28T10:44:45.418Z,356.00
2019-03-28T10:45:45.416Z,356.00
2019-03-28T10:46:45.419Z,356.00
2019-03-28T10:47:45.430Z,348.00
2019-03-28T10:48:45.431Z,340.00
2019-03-28T10:49:45.434Z,336.00
2019-03-28T10:50:46.156Z,336.00
2019-03-28T10:51:45.438Z,340.00
2019-03-28T10:52:45.447Z,348.00
2019-03-28T10:53:45.450Z,356.00
2019-03-28T10:54:45.451Z,360.00
2019-03-28T10:55:45.456Z,364.00
2019-03-28T10:56:51.978Z,360.00
2019-03-28T10:57:45.477Z,352.00
2019-03-28T10:58:45.473Z,340.00
2019-03-28T10:59:45.475Z,332.00
2019-03-28T11:00:45.495Z,328.00
2019-03-28T11:01:50.047Z,328.00
2019-03-28T11:02:45.506Z,324.00
2019-03-28T11:03:45.485Z,312.00
2019-03-28T11:04:45.493Z,304.00
2019-03-28T11:05:45.492Z,300.00
2019-03-28T11:06:45.492Z,300.00
2019-03-28T11:07:45.518Z,304.00
2019-03-28T11:08:45.505Z,308.00
2019-03-28T11:09:45.506Z,316.00
2019-03-28T11:10:45.516Z,324.00
2019-03-28T11:11:45.515Z,336.00
2019-03-28T11:12:45.519Z,348.00
2019-03-28T11:13:45.523Z,360.00
2019-03-28T11:14:46.315Z,368.00
2019-03-28T11:15:45.527Z,376.00
2019-03-28T11:16:48.254Z,376.00
2019-03-28T11:17:45.540Z,376.00
2019-03-28T11:18:45.545Z,372.00
2019-03-28T11:19:45.540Z,372.00
2019-03-28T11:20:45.543Z,372.00
2019-03-28T11:21:45.553Z,380.00
2019-03-28T11:22:45.549Z,384.00
2019-03-28T11:23:45.561Z,388.00
2019-03-28T11:24:46.545Z,396.00
2019-03-28T11:25:45.563Z,400.00
2019-03-28T11:26:45.571Z,408.00
2019-03-28T11:27:45.572Z,416.00
2019-03-28T11:28:45.575Z,428.00
2019-03-28T11:29:45.587Z,440.00
2019-03-28T11:30:45.587Z,452.00
2019-03-28T11:31:50.391Z,456.00
2019-03-28T11:32:45.591Z,472.00
2019-03-28T11:33:45.596Z,492.00
2019-03-28T11:34:45.602Z,524.00
2019-03-28T11:35:45.597Z,600.00
2019-03-28T11:36:45.605Z,632.00
2019-03-28T11:37:45.616Z,616.00
2019-03-28T11:38:45.628Z,564.00
2019-03-28T11:39:46.635Z,528.00
2019-03-28T11:40:45.616Z,536.00
2019-03-28T11:41:45.623Z,592.00
2019-03-28T11:42:45.627Z,556.00
2019-03-28T11:43:45.783Z,568.00
2019-03-28T11:44:45.631Z,616.00
2019-03-28T11:45:45.648Z,636.00
2019-03-28T11:46:45.643Z,640.00
2019-03-28T11:47:45.647Z,668.00
2019-03-28T11:48:45.645Z,676.00
2019-03-28T11:49:45.654Z,752.00
2019-03-28T11:50:45.646Z,720.00
2019-03-28T11:51:45.658Z,728.00
2019-03-28T11:52:45.658Z,716.00
2019-03-28T11:53:45.671Z,736.00
2019-03-28T11:54:45.668Z,760.00
2019-03-28T11:55:48.719Z,764.00
2019-03-28T11:56:45.671Z,732.00
2019-03-28T11:57:45.688Z,644.00
2019-03-28T11:58:45.701Z,740.00
2019-03-28T11:59:45.698Z,812.00
2019-03-28T12:00:45.824Z,816.00
2019-03-28T12:01:59.108Z,808.00
2019-03-28T12:02:46.288Z,712.00
2019-03-28T12:03:45.704Z,772.00
2019-03-28T12:04:45.714Z,808.00
2019-03-28T12:05:45.711Z,808.00
2019-03-28T12:06:48.774Z,812.00
2019-03-28T12:07:45.720Z,772.00
2019-03-28T12:08:46.290Z,736.00
2019-03-28T12:09:45.729Z,716.00
2019-03-28T12:10:45.736Z,720.00
2019-03-28T12:11:45.735Z,732.00
2019-03-28T12:12:46.294Z,740.00
2019-03-28T12:13:45.748Z,636.00
2019-03-28T12:14:45.757Z,588.00
2019-03-28T12:15:45.751Z,548.00
2019-03-28T12:16:45.749Z,528.00
2019-03-28T12:17:45.762Z,520.00
2019-03-28T12:18:45.830Z,508.00
2019-03-28T12:19:45.764Z,500.00
2019-03-28T12:20:45.788Z,488.00
2019-03-28T12:21:45.771Z,468.00
2019-03-28T12:22:45.775Z,448.00
2019-03-28T12:23:45.784Z,436.00
2019-03-28T12:24:45.789Z,424.00
2019-03-28T12:25:47.319Z,412.00
2019-03-28T12:26:45.931Z,404.00
2019-03-28T12:27:45.795Z,392.00
2019-03-28T12:28:45.809Z,388.00
2019-03-28T12:29:45.807Z,392.00
2019-03-28T12:30:45.819Z,396.00
2019-03-28T12:31:45.806Z,400.00
2019-03-28T12:32:45.896Z,384.00
2019-03-28T12:33:45.820Z,372.00
2019-03-28T12:34:45.832Z,360.00
2019-03-28T12:35:45.824Z,356.00
2019-03-28T12:36:45.843Z,352.00
2019-03-28T12:37:45.834Z,348.00
2019-03-28T12:38:45.846Z,344.00
2019-03-28T12:39:46.588Z,340.00
2019-03-28T12:40:46.802Z,348.00
2019-03-28T12:41:45.845Z,360.00
2019-03-28T12:42:45.861Z,384.00
2019-03-28T12:43:45.859Z,408.00
2019-03-28T12:44:56.382Z,424.00
2019-03-28T12:45:45.860Z,400.00
2019-03-28T12:46:45.871Z,380.00
2019-03-28T12:47:45.872Z,372.00
2019-03-28T12:48:45.887Z,360.00
2019-03-28T12:49:45.876Z,352.00
2019-03-28T12:50:58.316Z,340.00
2019-03-28T12:51:45.887Z,332.00
2019-03-28T12:52:45.893Z,324.00
2019-03-28T12:53:45.890Z,312.00
2019-03-28T12:54:45.898Z,304.00